Airfield :
LOGIN :

Register | Disclaimer

   EN    FR    IT 

 










Legend :    VFR   Marginal VFR   IFR   Intensive IFR   Very Intensive IFR
Visi :
Ceiling :
>= 8 km
>= 3000ft
5 to 8 km
1000 to 3000 ft
1500m to 5 km
500 to 1000 ft
800 to 1500m
200 to 500 ft
< 800m
< 200 ft
Symbols :   Thunderstorms  Fog  Heavy snow  Heavy precipitations  Wind > 20 kt
SIGMETs :     Misc.  Thunderstorms  Icing  Turbulence  Mountain Waves  Volcanic Ashes







- Airport Elevation : 218 ft
- IATA code : LBG
- Download approach charts


LFPB - Paris / Le Bourget

CURRENT METAR :
  • 220600Z AUTO 26004KT 230V290 4200 RA BR BKN007/// BKN015/// BKN024/// ///TCU 12/11 Q1010 TEMPO 2000 RA

EXPIRED METARs :
  • 220530Z AUTO 25007KT 210V290 5000 RA BR BKN012/// BKN029/// BKN042/// ///TCU 12/11 Q1011 TEMPO 2000 RA BECMG BKN007
  • 220500Z AUTO 24009KT 6000 -RADZ BKN007 OVC011 12/11 Q1010 TEMPO 2000 RA
  • 220430Z AUTO 24009KT 4500 -DZ BR BKN005 OVC009 12/11 Q1011 TEMPO 2000 RA
  • 220400Z AUTO 24007KT 220V280 5000 -DZ BR OVC004 12/11 Q1011 TEMPO 26015G25KT 1500 -DZRA BECMG BKN007
  • 220330Z AUTO 25009KT 220V280 5000 BR OVC005 12/11 Q1011 TEMPO 26015G25KT 1500 -DZRA

TAF TAF LFPB
Valid from the 22 at 06:00 until the 23 at 06:00 UTC


220500Z 2206/2306 24010KT 8000 BKN005
BECMG 2206/2207 4000 -RA
PROB40
TEMPO 2206/2209 2000 RA BKN005TCU
BECMG 2210/2211 32015G25KT
PROB30
TEMPO 2210/2212 27020G35KT 1400 +RA SCT012CB BKN015
BECMG 2212/2213 9999 NSW BKN020
BECMG 2216/2218 23010KT
BECMG 2221/2223 BKN012
BECMG 2305/2306 4000 -RADZ BKN005
ATIS : +33 1 48 62 43 92
No reported NOTAMs for that airfield.



MET'MAP, your aeronautical weather chart ! - Copyright ORBIFLY December 2007 - Disclaimer

ORBIFLY MET'MAP TEAM :

Programming & Development : Alexandra Zaïnal
Concept & Development : Baudouin d'Aumeries
Co-Development & Prog : Marc-Olivier Méhu
Technical & hardware support : Manuel Goepfert

Contact : metmap@orbifly.com




SOURCES & CREDITS :

   NOAA